Time;durP1;ratioP1;P1;durP2;ratioP2;P2;SDS_P1;SDS_P2;PMS_P1;PMS_P2;Temp;Humidity;BMP_temperature;BMP_pressure;BME280_temperature;BME280_humidity;BME280_pressure;Samples;Min_cycle;Max_cycle;Signal;HPM_P1;HPM_P2
2024/02/08 00:00:45;;;;;;;0.73;0.73;;;2.00;99.90;;;;;;4952149;28;20272;-82
2024/02/08 00:03:13;;;;;;;1.40;1.40;;;1.90;99.90;;;;;;4946162;28;20519;-82
2024/02/08 00:05:41;;;;;;;0.70;0.70;;;1.90;99.90;;;;;;4956851;29;20235;-84
2024/02/08 00:08:11;;;;;;;1.00;0.70;;;1.90;99.90;;;;;;4945748;29;20208;-84
2024/02/08 00:10:40;;;;;;;0.63;0.63;;;2.00;99.90;;;;;;4965915;29;20196;-84
2024/02/08 00:13:07;;;;;;;0.90;0.90;;;2.10;99.90;;;;;;4958249;28;20204;-83
2024/02/08 00:15:36;;;;;;;0.70;0.70;;;1.90;99.90;;;;;;4952111;28;20538;-82
2024/02/08 00:18:03;;;;;;;0.70;0.70;;;1.90;99.90;;;;;;4952945;28;20631;-82
2024/02/08 00:20:31;;;;;;;1.42;1.40;;;1.90;99.90;;;;;;4956370;28;20420;-85
2024/02/08 00:22:59;;;;;;;1.73;1.63;;;1.70;99.90;;;;;;4954798;29;20275;-83
2024/02/08 00:25:26;;;;;;;1.65;1.55;;;1.80;99.90;;;;;;4960131;28;20439;-81
2024/02/08 00:27:54;;;;;;;2.20;2.00;;;1.80;99.90;;;;;;4965373;28;20242;-84
2024/02/08 00:30:21;;;;;;;1.58;1.48;;;1.80;99.90;;;;;;4950284;28;20270;-82
2024/02/08 00:32:48;;;;;;;4.93;1.25;;;1.80;99.90;;;;;;4948355;28;20263;-82
2024/02/08 00:35:19;;;;;;;0.80;0.80;;;1.80;99.90;;;;;;4942169;29;20216;-85
2024/02/08 00:37:50;;;;;;;7.50;1.95;;;1.80;99.90;;;;;;4943920;28;20247;-85
2024/02/08 00:40:17;;;;;;;2.05;1.95;;;1.80;99.90;;;;;;4952745;29;20204;-84
2024/02/08 00:42:48;;;;;;;0.55;0.55;;;1.80;99.90;;;;;;4952601;28;20223;-83
2024/02/08 00:45:21;;;;;;;2.80;2.58;;;1.70;99.90;;;;;;4952915;28;20423;-83
2024/02/08 00:47:50;;;;;;;2.55;2.45;;;1.70;99.90;;;;;;4961002;28;20223;-84
2024/02/08 00:50:21;;;;;;;8.38;4.15;;;1.70;99.90;;;;;;4952387;28;20201;-82
2024/02/08 00:52:48;;;;;;;0.60;0.60;;;1.70;99.90;;;;;;4932437;28;20212;-83
2024/02/08 00:55:16;;;;;;;0.88;0.88;;;1.70;99.90;;;;;;4963971;28;20499;-82
2024/02/08 00:57:43;;;;;;;0.98;0.98;;;1.70;99.90;;;;;;4951295;28;20456;-83
2024/02/08 01:00:11;;;;;;;0.60;0.60;;;1.80;99.90;;;;;;4929268;29;20222;-82
2024/02/08 01:02:39;;;;;;;0.60;0.60;;;1.80;99.90;;;;;;4944567;28;20303;-84
2024/02/08 01:05:07;;;;;;;1.70;1.25;;;1.70;99.90;;;;;;4932928;28;20219;-85
2024/02/08 01:07:35;;;;;;;1.20;1.20;;;1.70;99.90;;;;;;4949719;28;20200;-88
2024/02/08 01:10:02;;;;;;;19.67;2.97;;;1.70;99.90;;;;;;4970399;28;20200;-84
2024/02/08 01:12:31;;;;;;;0.77;0.77;;;1.70;99.90;;;;;;4973969;28;20202;-85
2024/02/08 01:14:58;;;;;;;1.13;1.13;;;1.70;99.90;;;;;;4978614;28;20191;-84
2024/02/08 01:17:27;;;;;;;1.60;1.45;;;1.70;99.90;;;;;;4983152;28;20191;-89
2024/02/08 01:19:59;;;;;;;2.13;2.03;;;1.70;99.90;;;;;;4956816;28;20219;-83
2024/02/08 01:22:26;;;;;;;1.67;1.58;;;1.70;99.90;;;;;;4941857;29;20239;-86
2024/02/08 01:24:55;;;;;;;2.15;2.03;;;1.80;99.90;;;;;;4963787;28;20203;-81
2024/02/08 01:27:23;;;;;;;1.92;1.83;;;1.70;99.90;;;;;;4944836;28;20276;-83
2024/02/08 01:29:50;;;;;;;0.98;0.98;;;1.70;99.90;;;;;;4950639;28;20235;-82
2024/02/08 01:32:17;;;;;;;1.25;1.25;;;1.90;99.90;;;;;;4947422;29;20218;-81
2024/02/08 01:34:45;;;;;;;1.95;1.88;;;1.70;99.90;;;;;;4959661;28;20204;-83
2024/02/08 01:37:14;;;;;;;1.70;1.50;;;1.70;99.90;;;;;;4952158;28;20302;-83
2024/02/08 01:39:43;;;;;;;0.65;0.65;;;1.80;99.90;;;;;;4954188;28;20280;-82
2024/02/08 01:42:15;;;;;;;2.22;2.03;;;1.70;99.90;;;;;;4946145;29;20259;-82
2024/02/08 01:44:47;;;;;;;1.48;1.42;;;1.70;99.90;;;;;;4954916;28;20235;-83
2024/02/08 01:47:18;;;;;;;0.75;0.75;;;1.70;99.90;;;;;;4934500;29;20207;-83
2024/02/08 01:49:47;;;;;;;0.57;0.57;;;1.70;99.90;;;;;;4957126;28;20243;-83
2024/02/08 01:52:18;;;;;;;1.40;1.30;;;1.80;99.90;;;;;;4946689;29;20543;-84
2024/02/08 01:54:49;;;;;;;1.50;0.93;;;1.70;99.90;;;;;;4938354;28;20251;-83
2024/02/08 01:57:17;;;;;;;1.02;1.02;;;1.70;99.90;;;;;;4952069;28;20218;-84
2024/02/08 01:59:52;;;;;;;1.52;1.42;;;1.70;99.90;;;;;;4954813;28;20279;-84
2024/02/08 02:02:23;;;;;;;1.55;1.45;;;1.60;99.90;;;;;;4954679;28;20235;-84
2024/02/08 02:04:50;;;;;;;3.00;2.35;;;1.60;99.90;;;;;;4955403;28;20210;-84
2024/02/08 02:07:19;;;;;;;2.15;2.05;;;1.60;99.90;;;;;;4956690;28;20456;-84
2024/02/08 02:09:47;;;;;;;0.60;0.60;;;1.50;99.90;;;;;;4962993;28;20211;-83
2024/02/08 02:12:19;;;;;;;0.93;0.93;;;1.40;99.90;;;;;;4962385;29;20251;-83
2024/02/08 02:14:46;;;;;;;2.08;1.98;;;1.30;99.90;;;;;;4955681;28;20215;-87
2024/02/08 02:17:16;;;;;;;3.70;2.55;;;1.30;99.90;;;;;;4957086;28;20196;-87
2024/02/08 02:19:43;;;;;;;0.90;0.90;;;1.20;99.90;;;;;;4963243;28;20195;-87
2024/02/08 02:22:12;;;;;;;3.03;2.47;;;1.10;99.90;;;;;;4976198;28;20215;-87
2024/02/08 02:24:40;;;;;;;3.22;3.05;;;1.10;99.90;;;;;;4951555;28;20553;-83
2024/02/08 02:27:09;;;;;;;1.17;1.17;;;1.10;99.90;;;;;;4954801;28;20428;-83
2024/02/08 02:29:38;;;;;;;1.75;1.23;;;1.00;99.90;;;;;;4953602;28;20271;-85
2024/02/08 02:32:10;;;;;;;4.22;2.70;;;1.00;99.90;;;;;;4954827;29;20207;-84
2024/02/08 02:34:41;;;;;;;3.90;3.15;;;1.00;99.90;;;;;;4957426;28;20207;-85
2024/02/08 02:37:11;;;;;;;1.55;1.45;;;0.90;99.90;;;;;;4966762;28;20197;-87
2024/02/08 02:39:38;;;;;;;1.33;1.27;;;0.90;99.90;;;;;;4968333;28;20192;-88
2024/02/08 02:42:06;;;;;;;0.82;0.82;;;0.90;99.90;;;;;;4950746;28;20270;-87
2024/02/08 02:44:34;;;;;;;2.00;1.90;;;0.90;99.90;;;;;;4946753;28;20192;-87
2024/02/08 02:47:06;;;;;;;2.90;2.00;;;1.00;99.90;;;;;;4964215;28;20210;-87
2024/02/08 02:49:39;;;;;;;1.90;1.80;;;0.90;99.90;;;;;;4956576;28;20254;-83
2024/02/08 02:52:10;;;;;;;0.90;0.90;;;0.90;99.90;;;;;;4946097;29;20399;-85
2024/02/08 02:54:39;;;;;;;0.50;0.50;;;0.80;99.90;;;;;;4963291;28;20188;-88
2024/02/08 02:57:10;;;;;;;0.60;0.60;;;0.80;99.90;;;;;;4964936;28;20180;-83
2024/02/08 02:59:38;;;;;;;1.90;1.80;;;0.80;99.90;;;;;;4971254;28;20226;-86
2024/02/08 03:02:08;;;;;;;2.45;2.25;;;0.70;99.90;;;;;;4955320;29;20299;-85
2024/02/08 03:04:36;;;;;;;0.77;0.77;;;0.70;99.90;;;;;;4966829;29;20199;-83
2024/02/08 03:07:03;;;;;;;0.55;0.55;;;0.70;99.90;;;;;;4963621;28;20243;-84
2024/02/08 03:09:31;;;;;;;0.80;0.80;;;0.70;99.90;;;;;;4944775;29;20224;-83
2024/02/08 03:11:58;;;;;;;0.80;0.80;;;0.70;99.90;;;;;;4959360;28;20223;-87
2024/02/08 03:14:26;;;;;;;0.90;0.90;;;0.60;99.90;;;;;;4967450;28;20239;-87
2024/02/08 03:17:00;;;;;;;1.13;1.13;;;0.60;99.90;;;;;;4967324;28;20203;-90
2024/02/08 03:19:35;;;;;;;0.82;0.82;;;0.60;99.90;;;;;;4968512;28;20210;-87
2024/02/08 03:22:07;;;;;;;0.75;0.75;;;0.50;99.90;;;;;;4951983;28;20240;-89
2024/02/08 03:24:35;;;;;;;0.90;0.90;;;0.50;99.90;;;;;;4976398;28;20250;-87
2024/02/08 03:27:05;;;;;;;1.42;1.33;;;0.40;99.90;;;;;;4972320;28;20207;-90
2024/02/08 03:29:35;;;;;;;1.23;1.23;;;0.50;99.90;;;;;;4977139;28;20199;-88
2024/02/08 03:32:03;;;;;;;1.05;1.05;;;0.40;99.90;;;;;;4976874;28;20251;-89
2024/02/08 03:34:30;;;;;;;0.85;0.85;;;0.40;99.90;;;;;;4950666;28;20199;-89
2024/02/08 03:36:58;;;;;;;0.52;0.52;;;0.40;99.90;;;;;;4968748;28;20199;-89
2024/02/08 03:39:25;;;;;;;1.25;1.25;;;0.30;99.90;;;;;;4940481;28;20236;-84
2024/02/08 03:42:07;;;;;;;2.08;1.98;;;0.30;99.90;;;;;;4938647;28;20240;-84
2024/02/08 03:44:34;;;;;;;1.65;1.63;;;0.40;99.90;;;;;;4930178;29;20243;-83
2024/02/08 03:47:07;;;;;;;0.60;0.60;;;0.30;99.90;;;;;;4943808;29;20211;-83
2024/02/08 03:49:40;;;;;;;1.80;1.70;;;0.20;99.90;;;;;;4943104;28;20208;-83
2024/02/08 03:52:10;;;;;;;0.50;0.50;;;0.20;99.90;;;;;;4933374;28;20215;-82
2024/02/08 03:54:38;;;;;;;1.42;1.42;;;0.20;99.90;;;;;;4939250;29;20279;-84
2024/02/08 03:57:05;;;;;;;1.77;1.67;;;0.20;99.90;;;;;;4944259;29;20472;-85
2024/02/08 03:59:40;;;;;;;3.90;2.63;;;0.30;99.90;;;;;;4948473;28;20252;-84
2024/02/08 04:02:09;;;;;;;2.15;1.95;;;0.30;99.90;;;;;;4947028;29;20233;-85
2024/02/08 04:04:59;;;;;;;9.57;2.80;;;0.40;99.90;;;;;;4958123;28;20500;-83
2024/02/08 04:07:56;;;;;;;10.82;3.80;;;0.40;99.90;;;;;;4948437;28;20399;-83
2024/02/08 04:53:30;;;;;;;2.20;2.10;;;0.40;99.90;;;;;;4957264;28;20203;-83
2024/02/08 04:54:51;;;;;;;1.90;1.80;;;0.50;99.90;;;;;;4962507;28;20230;-84
2024/02/08 04:57:19;;;;;;;0.88;0.88;;;0.70;99.90;;;;;;4959179;29;20229;-86
2024/02/08 04:59:46;;;;;;;2.05;1.85;;;0.70;99.90;;;;;;4955382;29;20212;-83
2024/02/08 05:02:16;;;;;;;12.05;1.17;;;0.80;99.90;;;;;;4958623;28;20302;-83
2024/02/08 05:04:47;;;;;;;1.13;1.13;;;0.80;99.90;;;;;;4938755;29;20216;-85
2024/02/08 05:07:14;;;;;;;1.35;1.25;;;0.80;99.90;;;;;;4966554;28;20519;-81
2024/02/08 05:09:42;;;;;;;1.75;1.25;;;0.90;99.90;;;;;;4940655;29;20207;-86
2024/02/08 05:12:10;;;;;;;3.58;1.52;;;1.20;99.90;;;;;;4952812;28;20501;-86
2024/02/08 05:14:40;;;;;;;0.70;0.70;;;1.00;99.90;;;;;;4953582;28;20204;-85
2024/02/08 05:17:08;;;;;;;2.50;2.40;;;1.00;99.90;;;;;;4938994;28;20209;-86
2024/02/08 05:19:43;;;;;;;0.80;0.80;;;1.00;99.90;;;;;;4963343;29;20208;-84
2024/02/08 05:22:13;;;;;;;0.50;0.50;;;1.00;99.90;;;;;;4929353;29;20818;-84
2024/02/08 05:24:41;;;;;;;1.73;1.63;;;1.00;99.90;;;;;;4942055;29;20459;-85
2024/02/08 05:27:11;;;;;;;15.60;2.65;;;1.00;99.90;;;;;;4961011;28;20227;-84
2024/02/08 05:29:41;;;;;;;0.40;0.40;;;0.90;99.90;;;;;;4944123;28;20238;-85
2024/02/08 05:32:09;;;;;;;7.18;3.67;;;1.00;99.90;;;;;;4952572;28;20218;-85
2024/02/08 05:34:39;;;;;;;1.00;1.00;;;0.90;99.90;;;;;;4962144;28;20215;-84
2024/02/08 05:37:06;;;;;;;2.42;2.33;;;0.90;99.90;;;;;;4960708;28;20204;-84
2024/02/08 05:39:36;;;;;;;1.88;1.77;;;0.90;99.90;;;;;;4964105;28;20250;-84
2024/02/08 05:42:03;;;;;;;0.77;0.77;;;0.80;99.90;;;;;;4967369;28;20204;-88
2024/02/08 05:44:31;;;;;;;0.80;0.80;;;0.70;99.90;;;;;;4970117;28;20216;-85
2024/02/08 05:47:07;;;;;;;0.50;0.50;;;0.60;99.90;;;;;;4970988;28;20192;-89
2024/02/08 05:49:38;;;;;;;1.38;1.35;;;0.80;99.90;;;;;;4963170;28;20279;-83
2024/02/08 05:52:07;;;;;;;0.65;0.65;;;0.80;99.90;;;;;;4940943;28;20216;-85
2024/02/08 05:54:40;;;;;;;22.83;2.58;;;0.80;99.90;;;;;;4955537;28;20377;-84
2024/02/08 05:57:10;;;;;;;1.13;1.13;;;0.90;99.90;;;;;;4954695;28;20533;-84
2024/02/08 05:59:39;;;;;;;2.13;1.88;;;1.00;99.90;;;;;;4932034;29;20214;-83
2024/02/08 06:02:17;;;;;;;4.13;2.88;;;1.00;99.90;;;;;;4956150;28;20256;-85
2024/02/08 06:04:50;;;;;;;0.68;0.68;;;1.00;99.90;;;;;;4951806;28;20216;-83
2024/02/08 06:07:20;;;;;;;0.93;0.93;;;0.70;99.90;;;;;;4948045;28;20242;-83
2024/02/08 06:09:48;;;;;;;1.13;1.13;;;1.20;99.90;;;;;;4948351;28;20239;-83
2024/02/08 06:15:24;;;;;;;1.70;1.60;;;1.10;99.90;;;;;;4962375;28;20452;-83
2024/02/08 06:17:57;;;;;;;2.50;2.30;;;1.00;99.90;;;;;;4956192;28;20210;-85
2024/02/08 06:20:43;;;;;;;0.70;0.70;;;0.90;99.90;;;;;;4931869;29;20199;-85
2024/02/08 06:23:17;;;;;;;0.50;0.50;;;0.90;99.90;;;;;;4946638;29;20407;-85
2024/02/08 06:28:46;;;;;;;3.53;2.13;;;1.00;99.90;;;;;;4956626;28;20203;-85
2024/02/08 06:31:18;;;;;;;1.98;1.88;;;0.90;99.90;;;;;;4960600;28;20199;-85
2024/02/08 06:34:10;;;;;;;2.03;1.92;;;1.00;99.90;;;;;;4950085;29;20207;-83
2024/02/08 06:36:49;;;;;;;1.17;1.08;;;1.00;99.90;;;;;;4960646;28;20234;-83
2024/02/08 06:39:29;;;;;;;1.83;1.73;;;1.10;99.90;;;;;;4970711;28;20235;-81
2024/02/08 06:44:53;;;;;;;0.57;0.57;;;1.30;99.90;;;;;;4937917;29;20278;-87
2024/02/08 07:37:27;;;;;;;5.75;4.25;;;1.90;99.90;;;;;;4968424;29;20212;-87
2024/02/08 07:40:00;;;;;;;1.25;1.15;;;1.90;99.90;;;;;;4970117;28;20211;-85
2024/02/08 07:42:29;;;;;;;0.98;0.98;;;2.00;99.90;;;;;;4961795;28;20188;-83
2024/02/08 07:44:57;;;;;;;0.80;0.80;;;2.00;99.90;;;;;;4979541;28;20231;-83
2024/02/08 07:47:25;;;;;;;1.60;1.50;;;2.10;99.90;;;;;;4978525;29;20199;-83
2024/02/08 07:50:04;;;;;;;0.88;0.88;;;2.10;99.90;;;;;;4963687;29;20439;-81
2024/02/08 07:52:58;;;;;;;0.50;0.50;;;2.00;99.90;;;;;;4921155;29;20243;-83
2024/02/08 07:58:07;;;;;;;0.70;0.70;;;2.00;99.90;;;;;;4961036;29;20203;-84
2024/02/08 08:03:08;;;;;;;2.60;2.40;;;2.10;99.90;;;;;;4972341;28;20260;-86
2024/02/08 08:05:41;;;;;;;1.75;1.67;;;2.20;99.90;;;;;;4975517;28;20196;-82
2024/02/08 08:08:25;;;;;;;2.17;2.08;;;2.10;99.90;;;;;;4977110;28;20190;-83
2024/02/08 08:11:02;;;;;;;2.60;2.40;;;2.20;99.90;;;;;;4966047;28;20270;-84
2024/02/08 08:19:09;;;;;;;3.42;3.22;;;2.30;99.90;;;;;;4957790;28;20223;-83
2024/02/08 08:24:29;;;;;;;1.45;1.35;;;2.30;99.90;;;;;;4961203;28;20247;-84
2024/02/08 08:27:07;;;;;;;1.70;1.60;;;2.40;99.90;;;;;;4961787;28;20208;-82
2024/02/08 08:29:42;;;;;;;5.05;4.55;;;2.30;99.90;;;;;;4959187;28;20240;-80
2024/02/08 08:38:13;;;;;;;0.85;0.85;;;2.30;99.90;;;;;;4957425;28;20270;-84
2024/02/08 08:40:37;;;;;;;1.95;1.83;;;2.30;99.90;;;;;;4955206;28;20448;-84
2024/02/08 08:43:27;;;;;;;1.45;1.38;;;2.50;99.90;;;;;;4969751;28;20228;-84
2024/02/08 08:46:01;;;;;;;1.45;1.42;;;2.60;99.90;;;;;;4955769;29;20266;-82
2024/02/08 08:48:33;;;;;;;0.70;0.70;;;2.90;99.90;;;;;;4959441;29;20270;-82
2024/02/08 08:51:11;;;;;;;1.90;1.80;;;3.00;99.90;;;;;;4971667;28;20423;-83
2024/02/08 08:53:56;;;;;;;2.85;2.65;;;3.10;99.90;;;;;;4936952;29;20546;-81
2024/02/08 08:56:28;;;;;;;2.25;2.15;;;3.20;99.90;;;;;;4939168;29;20223;-82
2024/02/08 08:58:58;;;;;;;1.23;1.23;;;3.20;99.90;;;;;;4937632;29;20212;-86
2024/02/08 09:01:29;;;;;;;2.20;2.05;;;3.50;99.90;;;;;;4989398;28;20192;-84
2024/02/08 09:04:10;;;;;;;2.65;2.55;;;3.90;99.90;;;;;;4966502;28;20228;-84
2024/02/08 09:06:41;;;;;;;2.17;2.15;;;3.90;99.90;;;;;;4948568;29;20498;-81
2024/02/08 09:09:27;;;;;;;3.20;3.03;;;3.70;99.90;;;;;;4959189;28;20208;-82
2024/02/08 09:11:57;;;;;;;2.85;2.65;;;3.80;99.90;;;;;;4967780;28;20209;-82
2024/02/08 09:14:32;;;;;;;1.20;1.20;;;3.60;99.90;;;;;;4954727;28;20547;-82
2024/02/08 09:17:02;;;;;;;1.10;1.10;;;3.80;99.90;;;;;;4939264;29;20449;-81
2024/02/08 09:19:50;;;;;;;0.95;0.95;;;4.00;99.90;;;;;;4988950;28;20221;-82
2024/02/08 09:22:18;;;;;;;10.02;2.63;;;4.10;99.90;;;;;;4964065;28;20256;-82
2024/02/08 09:24:45;;;;;;;1.17;1.13;;;4.40;99.90;;;;;;4973622;28;20252;-86
2024/02/08 09:27:16;;;;;;;1.42;1.42;;;4.20;99.90;;;;;;4969214;28;20196;-88
2024/02/08 09:29:55;;;;;;;3.25;2.97;;;4.40;99.90;;;;;;4932010;29;20419;-82
2024/02/08 09:35:12;;;;;;;1.05;1.05;;;4.40;99.90;;;;;;4956874;28;20214;-83
2024/02/08 09:37:47;;;;;;;2.22;2.13;;;4.70;99.90;;;;;;4939599;29;20234;-82
2024/02/08 09:40:45;;;;;;;2.72;1.83;;;4.70;99.90;;;;;;4936491;28;20452;-87
2024/02/08 09:43:17;;;;;;;1.42;1.42;;;4.90;99.90;;;;;;4955141;28;20497;-82
2024/02/08 09:45:46;;;;;;;0.60;0.60;;;5.00;99.90;;;;;;4958364;28;20220;-82
2024/02/08 09:48:25;;;;;;;0.60;0.60;;;4.80;99.90;;;;;;4952069;28;20495;-81
2024/02/08 09:50:59;;;;;;;1.65;1.65;;;4.80;99.90;;;;;;4935673;29;20647;-80
2024/02/08 09:53:27;;;;;;;0.80;0.80;;;4.60;99.90;;;;;;4932545;29;20210;-82
2024/02/08 09:56:05;;;;;;;1.50;1.50;;;4.50;99.90;;;;;;4955372;28;20330;-82
2024/02/08 09:58:38;;;;;;;0.52;0.52;;;4.60;99.90;;;;;;4934657;29;20766;-85
2024/02/08 10:01:22;;;;;;;0.60;0.60;;;4.70;99.90;;;;;;4940758;28;20208;-80
2024/02/08 10:04:14;;;;;;;1.45;1.35;;;4.70;99.90;;;;;;4948924;28;20230;-80
2024/02/08 10:06:45;;;;;;;1.00;0.90;;;4.70;99.90;;;;;;4940897;29;20235;-82
2024/02/08 10:12:06;;;;;;;0.80;0.80;;;4.60;99.90;;;;;;4960459;28;20229;-81
2024/02/08 10:14:42;;;;;;;0.70;0.70;;;4.80;99.90;;;;;;4974921;28;20210;-81
2024/02/08 10:17:24;;;;;;;0.60;0.60;;;5.20;99.90;;;;;;4970908;28;20219;-80
2024/02/08 10:22:56;;;;;;;0.90;0.90;;;5.80;99.90;;;;;;4973363;28;20404;-82
2024/02/08 10:28:23;;;;;;;0.65;0.65;;;5.40;99.90;;;;;;4957409;28;20218;-81
2024/02/08 10:31:05;;;;;;;0.60;0.60;;;5.60;99.90;;;;;;4964589;28;20220;-81
2024/02/08 10:33:37;;;;;;;1.90;1.80;;;5.80;99.90;;;;;;4970335;28;20228;-83
2024/02/08 10:36:10;;;;;;;0.60;0.60;;;5.70;99.90;;;;;;4975018;28;20226;-81
2024/02/08 10:38:55;;;;;;;0.52;0.52;;;5.40;99.90;;;;;;4964063;28;20496;-85
2024/02/08 10:41:37;;;;;;;0.60;0.60;;;5.60;99.90;;;;;;4964120;29;20229;-81
2024/02/08 10:44:05;;;;;;;2.47;1.55;;;5.80;99.90;;;;;;4973182;28;20261;-82
2024/02/08 10:46:33;;;;;;;1.52;1.48;;;5.90;99.90;;;;;;4953277;28;20534;-80
2024/02/08 10:49:08;;;;;;;0.70;0.70;;;5.50;99.90;;;;;;4958763;28;20215;-80
2024/02/08 10:51:37;;;;;;;0.60;0.60;;;5.20;99.90;;;;;;4986247;28;20195;-82
2024/02/08 10:54:14;;;;;;;0.60;0.60;;;5.50;99.90;;;;;;4954009;29;20258;-84
2024/02/08 10:56:45;;;;;;;0.70;0.70;;;5.60;99.90;;;;;;4951015;28;20195;-84
2024/02/08 10:59:14;;;;;;;0.60;0.60;;;5.60;99.90;;;;;;4968670;28;20219;-85
2024/02/08 11:04:28;;;;;;;0.95;0.95;;;5.50;99.90;;;;;;4955525;28;20278;-82
2024/02/08 11:07:16;;;;;;;1.10;1.10;;;5.40;99.90;;;;;;4953309;29;20241;-81
2024/02/08 11:09:46;;;;;;;0.60;0.60;;;5.40;99.90;;;;;;4924079;29;20518;-83
2024/02/08 11:12:21;;;;;;;0.60;0.60;;;5.30;99.90;;;;;;4951677;28;20217;-79
2024/02/08 11:14:57;;;;;;;0.70;0.70;;;5.20;99.90;;;;;;4949781;29;20202;-81
2024/02/08 11:17:28;;;;;;;0.60;0.60;;;5.20;99.90;;;;;;4967783;28;20207;-81
2024/02/08 11:19:58;;;;;;;0.85;0.85;;;5.40;99.90;;;;;;4937316;29;20214;-82
2024/02/08 11:22:40;;;;;;;0.88;0.88;;;5.50;99.90;;;;;;4968445;28;20210;-82
2024/02/08 11:25:23;;;;;;;2.05;1.48;;;5.50;99.90;;;;;;4963483;28;20221;-80
2024/02/08 11:27:52;;;;;;;1.38;1.33;;;5.40;99.90;;;;;;4960798;28;20217;-81
2024/02/08 11:30:32;;;;;;;0.75;0.75;;;5.70;99.90;;;;;;4947621;28;20222;-85
2024/02/08 11:33:04;;;;;;;0.77;0.77;;;5.70;99.90;;;;;;4951441;28;20205;-81
2024/02/08 11:35:35;;;;;;;0.85;0.85;;;5.70;99.90;;;;;;4961305;28;20212;-80
2024/02/08 11:38:28;;;;;;;1.80;0.98;;;6.00;99.90;;;;;;4955018;28;20206;-81
2024/02/08 11:40:57;;;;;;;0.60;0.60;;;5.90;99.90;;;;;;4940558;29;20298;-81
2024/02/08 11:43:24;;;;;;;0.50;0.50;;;5.80;99.90;;;;;;4930434;29;20279;-82
2024/02/08 11:45:56;;;;;;;1.15;1.05;;;5.70;99.90;;;;;;4951023;28;20235;-81
2024/02/08 11:48:33;;;;;;;0.80;0.80;;;5.40;99.90;;;;;;4968031;28;20249;-86
2024/02/08 11:51:22;;;;;;;0.90;0.90;;;5.20;99.90;;;;;;4977574;28;20192;-88
2024/02/08 11:53:51;;;;;;;0.95;0.95;;;5.60;99.90;;;;;;4954002;28;20202;-85
2024/02/08 11:56:20;;;;;;;1.02;1.02;;;5.80;99.90;;;;;;4969992;28;20209;-83
2024/02/08 11:58:48;;;;;;;1.27;1.27;;;5.70;99.90;;;;;;4947101;28;20215;-82
2024/02/08 12:01:17;;;;;;;0.70;0.70;;;5.80;99.90;;;;;;4966336;28;20202;-82
2024/02/08 12:03:45;;;;;;;2.55;2.45;;;5.70;99.90;;;;;;4978913;28;20233;-86
2024/02/08 12:06:21;;;;;;;1.08;1.08;;;5.40;99.90;;;;;;4968782;28;20262;-82
2024/02/08 12:09:03;;;;;;;1.50;1.40;;;5.70;99.90;;;;;;4978253;28;20191;-82
2024/02/08 12:11:35;;;;;;;0.90;0.90;;;5.90;99.90;;;;;;4957370;28;20625;-82
2024/02/08 12:14:07;;;;;;;1.00;1.00;;;5.80;99.90;;;;;;4957398;28;20224;-84
2024/02/08 12:16:57;;;;;;;0.60;0.60;;;5.90;99.90;;;;;;4956448;28;20199;-81
2024/02/08 12:19:27;;;;;;;1.15;1.15;;;5.70;99.90;;;;;;4936824;28;20209;-81
2024/02/08 12:21:59;;;;;;;0.60;0.60;;;5.70;99.90;;;;;;4951830;28;20200;-82
2024/02/08 12:24:31;;;;;;;0.80;0.80;;;5.80;99.90;;;;;;4951977;28;20558;-81
2024/02/08 12:27:08;;;;;;;0.80;0.80;;;5.90;99.90;;;;;;4949569;28;20208;-83
2024/02/08 12:29:50;;;;;;;0.68;0.68;;;5.90;99.90;;;;;;4956182;28;20218;-85
2024/02/08 12:32:18;;;;;;;0.60;0.60;;;5.70;99.90;;;;;;4954492;28;20234;-81
2024/02/08 12:34:49;;;;;;;1.02;1.02;;;5.80;99.90;;;;;;4947305;29;20399;-82
2024/02/08 12:37:19;;;;;;;0.60;0.60;;;5.90;99.90;;;;;;4949164;28;20196;-83
2024/02/08 12:39:49;;;;;;;0.80;0.80;;;5.70;99.90;;;;;;4950193;28;20388;-82
2024/02/08 12:42:18;;;;;;;2.10;1.70;;;5.70;99.90;;;;;;4945173;28;20456;-82
2024/02/08 12:44:49;;;;;;;1.15;1.15;;;5.70;99.90;;;;;;4944186;29;20577;-84
2024/02/08 12:47:22;;;;;;;0.98;0.98;;;5.90;99.90;;;;;;4950451;28;20200;-85
2024/02/08 12:49:53;;;;;;;0.73;0.73;;;5.80;99.90;;;;;;4951742;28;20376;-81
2024/02/08 12:52:22;;;;;;;0.85;0.85;;;5.70;99.90;;;;;;4952253;28;20242;-81
2024/02/08 12:54:53;;;;;;;0.80;0.80;;;5.70;99.90;;;;;;4952489;28;20204;-83
2024/02/08 12:57:23;;;;;;;1.30;1.30;;;5.70;99.90;;;;;;4945694;28;20224;-82
2024/02/08 13:00:01;;;;;;;0.70;0.70;;;6.00;99.90;;;;;;4955751;29;20423;-79
2024/02/08 13:02:33;;;;;;;1.42;1.42;;;5.90;99.90;;;;;;4949710;28;20217;-83
2024/02/08 13:05:04;;;;;;;0.95;0.95;;;5.70;99.90;;;;;;4939910;29;20219;-81
2024/02/08 13:07:32;;;;;;;1.25;1.25;;;5.60;99.90;;;;;;4968617;28;20254;-82
2024/02/08 13:10:14;;;;;;;1.42;1.33;;;5.90;99.90;;;;;;4934058;29;20240;-82
2024/02/08 13:12:44;;;;;;;0.60;0.60;;;5.70;99.90;;;;;;4942055;28;20228;-82
2024/02/08 13:15:20;;;;;;;1.42;1.33;;;6.00;99.90;;;;;;4932429;29;20268;-83
2024/02/08 13:17:50;;;;;;;0.60;0.60;;;6.20;99.90;;;;;;4948860;28;20213;-84
2024/02/08 13:20:19;;;;;;;3.85;3.63;;;6.40;99.90;;;;;;4963192;28;20207;-83
2024/02/08 13:22:48;;;;;;;2.92;1.63;;;6.30;99.90;;;;;;4939720;29;20271;-83
2024/02/08 13:25:16;;;;;;;4.57;1.48;;;6.00;99.90;;;;;;4949303;28;20261;-87
2024/02/08 13:27:50;;;;;;;5.22;4.53;;;5.70;99.90;;;;;;4933998;28;20210;-85
2024/02/08 13:30:17;;;;;;;1.42;1.35;;;5.70;99.90;;;;;;4952547;28;20212;-85
2024/02/08 13:32:51;;;;;;;0.57;0.57;;;5.50;99.90;;;;;;4935105;29;20213;-82
2024/02/08 13:35:20;;;;;;;1.08;1.08;;;5.60;99.90;;;;;;4958597;28;20251;-80
2024/02/08 13:37:50;;;;;;;0.60;0.60;;;5.80;99.90;;;;;;4956605;28;20210;-82
2024/02/08 13:40:18;;;;;;;1.35;1.35;;;5.90;99.90;;;;;;4955033;28;20257;-81
2024/02/08 13:42:47;;;;;;;0.70;0.70;;;5.90;99.90;;;;;;4951424;29;20210;-81
2024/02/08 13:45:25;;;;;;;0.80;0.80;;;5.80;99.90;;;;;;4965450;28;20273;-84
2024/02/08 13:47:56;;;;;;;0.60;0.60;;;6.20;99.90;;;;;;4959759;28;20272;-82
2024/02/08 13:50:28;;;;;;;0.93;0.93;;;6.00;99.90;;;;;;4955421;28;20195;-86
2024/02/08 13:53:02;;;;;;;0.60;0.60;;;5.90;99.90;;;;;;4940583;29;20558;-85
2024/02/08 13:55:31;;;;;;;0.73;0.73;;;5.70;99.90;;;;;;4930121;28;20210;-85
2024/02/08 13:58:18;;;;;;;1.00;1.00;;;5.50;99.90;;;;;;4948093;29;20258;-85
2024/02/08 14:00:46;;;;;;;0.70;0.70;;;5.80;99.90;;;;;;4952237;28;20214;-83
2024/02/08 14:03:17;;;;;;;0.70;0.70;;;5.70;99.90;;;;;;4934421;29;20662;-84
2024/02/08 14:05:50;;;;;;;1.92;1.83;;;5.60;99.90;;;;;;4957476;28;20236;-87
2024/02/08 14:08:23;;;;;;;3.80;3.60;;;5.70;99.90;;;;;;4944391;29;20204;-82
2024/02/08 14:10:51;;;;;;;1.52;1.50;;;5.80;99.90;;;;;;4943756;29;20531;-84
2024/02/08 14:13:34;;;;;;;0.82;0.82;;;5.70;99.90;;;;;;4956600;29;20401;-82
2024/02/08 14:16:13;;;;;;;1.33;1.33;;;5.70;99.90;;;;;;4946121;28;20206;-83
2024/02/08 14:18:52;;;;;;;0.60;0.60;;;5.90;99.90;;;;;;4964962;28;20256;-83
2024/02/08 14:21:25;;;;;;;2.25;1.23;;;5.80;99.90;;;;;;4935779;29;20202;-83
2024/02/08 14:23:59;;;;;;;0.70;0.70;;;5.60;99.90;;;;;;4955708;28;20208;-81
2024/02/08 14:26:33;;;;;;;1.73;1.63;;;5.50;99.90;;;;;;4970158;28;20543;-82
2024/02/08 14:29:02;;;;;;;2.60;2.40;;;5.30;99.90;;;;;;4943568;29;20207;-84
2024/02/08 14:31:35;;;;;;;1.30;1.30;;;5.30;99.90;;;;;;4954823;28;20705;-85
2024/02/08 14:34:07;;;;;;;4.40;4.10;;;5.20;99.90;;;;;;4954595;29;20279;-82
2024/02/08 14:36:35;;;;;;;4.05;3.75;;;5.40;99.90;;;;;;4950930;28;20251;-82
2024/02/08 14:39:26;;;;;;;11.85;2.22;;;5.40;99.90;;;;;;4929619;29;20237;-82
2024/02/08 14:41:51;;;;;;;1.15;1.15;;;5.30;99.90;;;;;;4947345;29;20246;-84
2024/02/08 14:44:24;;;;;;;7.65;2.78;;;5.40;99.90;;;;;;4954693;29;20239;-84
2024/02/08 14:46:51;;;;;;;1.33;1.27;;;5.40;99.90;;;;;;4959684;29;20205;-82
2024/02/08 14:49:23;;;;;;;2.25;2.15;;;5.70;99.90;;;;;;4972653;28;20203;-81
2024/02/08 14:52:01;;;;;;;2.33;2.22;;;5.30;99.90;;;;;;4956538;29;20200;-83
2024/02/08 14:54:32;;;;;;;0.60;0.60;;;5.20;99.90;;;;;;4972972;28;20212;-86
2024/02/08 14:57:09;;;;;;;1.00;1.00;;;5.20;99.90;;;;;;4982391;28;20260;-81
2024/02/08 15:00:49;;;;;;;0.75;0.75;;;5.10;99.90;;;;;;4981317;28;20200;-84
2024/02/08 15:02:29;;;;;;;0.60;0.60;;;5.10;99.90;;;;;;4967834;28;20238;-82
2024/02/08 15:05:00;;;;;;;0.70;0.70;;;5.00;99.90;;;;;;4972555;28;20291;-85
2024/02/08 15:07:47;;;;;;;3.58;3.38;;;5.00;99.90;;;;;;4962439;28;20205;-82
2024/02/08 15:10:20;;;;;;;1.00;1.00;;;4.90;99.90;;;;;;4977813;28;20238;-87
2024/02/08 15:13:11;;;;;;;0.80;0.80;;;5.00;99.90;;;;;;4965108;28;20201;-83
2024/02/08 15:15:40;;;;;;;1.10;1.10;;;5.00;99.90;;;;;;4957916;28;20216;-82
2024/02/08 15:18:14;;;;;;;1.67;1.58;;;5.00;99.90;;;;;;4949880;28;20403;-84
2024/02/08 15:20:45;;;;;;;1.13;1.05;;;4.90;99.90;;;;;;4939363;29;20307;-82
2024/02/08 15:23:42;;;;;;;1.88;1.77;;;4.80;99.90;;;;;;4943091;29;20204;-82
2024/02/08 15:26:12;;;;;;;0.60;0.60;;;4.70;99.90;;;;;;4947574;29;20232;-82
2024/02/08 15:28:55;;;;;;;4.72;2.40;;;4.90;99.90;;;;;;4970989;28;20241;-85
2024/02/08 15:34:40;;;;;;;3.35;2.33;;;4.70;99.90;;;;;;4951088;28;20322;-83
2024/02/08 15:37:13;;;;;;;5.70;3.80;;;4.70;99.90;;;;;;4962454;28;20205;-83
2024/02/08 15:42:12;;;;;;;1.08;1.08;;;4.70;99.90;;;;;;4940305;29;20203;-84
2024/02/08 15:44:47;;;;;;;2.55;2.28;;;4.60;99.90;;;;;;4956888;28;20250;-82